Time;durP1;ratioP1;P1;durP2;ratioP2;P2;SDS_P1;SDS_P2;PMS_P1;PMS_P2;Temp;Humidity;BMP_temperature;BMP_pressure;BME280_temperature;BME280_humidity;BME280_pressure;Samples;Min_cycle;Max_cycle;Signal;HPM_P1;HPM_P2
2021/07/12 03:44:41;;;;;;;;;;;;;;;;;;;;;
2021/07/12 03:47:09;;;;;;;;;;;;;;;6.78;98.74;99180.09;6394387;22;19956;-91
2021/07/12 03:49:34;;;;;;;;;;;;;;;6.56;98.88;99175.63;6407010;22;19922;-91
2021/07/12 03:52:00;;;;;;;;;;;;;;;6.64;100.00;99170.94;6407735;22;19957;-90
2021/07/12 03:54:25;;;;;;;;;;;;;;;7.09;100.00;99164.84;6405720;22;19914;-90
2021/07/12 03:56:50;;;;;;;;;;;;;;;7.34;100.00;99165.69;6406285;22;19959;-90
2021/07/12 03:59:16;;;;;;;;;;;;;;;7.39;100.00;99164.59;6406134;22;19913;-92
2021/07/12 04:01:44;;;;;;;;;;;;;;;7.71;100.00;99159.78;6406851;22;19914;-90
2021/07/12 04:04:10;;;;;;;;;;;;;;;7.57;100.00;99156.88;6406544;22;19928;-91
2021/07/12 04:06:35;;;;;;;;;;;;;;;7.48;100.00;99151.97;6378530;22;19981;-91
2021/07/12 04:09:01;;;;;;;;;;;;;;;7.16;100.00;99144.41;6378086;22;20294;-91
2021/07/12 04:11:36;;;;;;;;;;;;;;;7.06;100.00;99140.41;6377656;22;19910;-90
2021/07/12 04:14:02;;;;;;;;;;;;;;;7.02;100.00;99134.41;6405265;22;20185;-90
2021/07/12 04:16:28;;;;;;;;;;;;;;;7.06;99.55;99128.09;6405739;22;19921;-90
2021/07/12 04:18:53;;;;;;;;;;;;;;;6.74;100.00;99131.97;6405691;22;19918;-91
2021/07/12 04:21:19;;;;;;;;;;;;;;;6.90;99.46;99134.88;6405671;22;20245;-90
2021/07/12 04:23:44;;;;;;;;;;;;;;;6.80;100.00;99136.16;6406099;22;19914;-91
2021/07/12 04:26:27;;;;;;;;;;;;;;;6.63;99.84;99129.72;6379561;22;19918;-92
2021/07/12 04:28:55;;;;;;;;;;;;;;;6.70;98.25;99130.34;6406222;22;19980;-91
2021/07/12 04:31:31;;;;;;;;;;;;;;;6.64;99.17;99130.59;6406198;22;20000;-91
2021/07/12 07:27:20;;;;;;;;;;;;;;;6.10;95.22;98998.38;6408610;22;19924;-91
2021/07/12 07:29:51;;;;;;;;;;;;;;;6.14;95.47;98990.34;6408114;22;19963;-92
2021/07/12 07:32:54;;;;;;;;;;;;;;;5.98;95.86;98990.03;6384529;22;19929;-92
2021/07/12 07:35:20;;;;;;;;;;;;;;;5.90;96.76;98971.00;6346546;22;19926;-91
2021/07/12 08:11:16;;;;;;;;;;;;;;;6.07;94.53;98932.75;6399909;22;19918;-92
2021/07/12 09:23:27;;;;;;;;;;;;;;;5.91;96.69;98978.00;6402144;22;19928;-89
2021/07/12 09:29:25;;;;;;;;;;;;;;;;;;;;;
2021/07/12 11:14:31;;;;;;;;;;;;;;;;;;;;;
2021/07/12 11:16:57;;;;;;;;;;;;;;;6.28;97.38;98971.38;6406316;22;19933;-90
2021/07/12 11:19:24;;;;;;;;;;;;;;;6.46;97.37;98966.31;6381974;22;19929;-92
2021/07/12 11:22:34;;;;;;;;;;;;;;;6.39;98.32;98959.59;6382108;22;19925;-91
2021/07/12 11:25:18;;;;;;;;;;;;;;;6.18;97.64;98948.97;6395001;22;19910;-92
2021/07/12 11:27:57;;;;;;;;;;;;;;;6.37;97.70;98943.88;6253106;22;19915;-91
2021/07/12 11:31:01;;;;;;;;;;;;;;;;;;;;;
2021/07/12 11:36:20;;;;;;;;;;;;;;;6.55;96.32;98939.66;6380982;22;19940;-92
2021/07/12 11:38:48;;;;;;;;;;;;;;;6.33;98.04;98937.88;6408077;22;19966;-91
2021/07/12 11:41:49;;;;;;;;;;;;;;;;;;;;;
2021/07/12 11:44:45;;;;;;;;;;;;;;;;;;;;;
2021/07/12 13:00:04;;;;;;;;;;;;;;;;;;;;;
2021/07/12 13:05:12;;;;;;;;;;;;;;;6.69;98.86;98923.31;6404443;22;20013;-91
2021/07/12 13:31:12;;;;;;;;;;;;;;;;;;;;;
2021/07/12 15:07:28;;;;;;;;;;;;;;;;;;;;;
